Terminal Aerodrome Forecast
Issued by NWS

Home | Current Version | Previous Version | Graphics & Text | Print | Product List | Glossary On
Versions: 1 2 3 4 5 6 7 8 9 10 11 12 13 14 15 16 17 18 19 20 21 22 23 24 25 26 27 28 29 30
000
FTUS43 KLOT 041500 AAC
TAFORD
TAF AMD
KORD 041500Z 0415/0518 13007KT 6SM -SN OVC025
     FM041600 14007KT 1 1/2SM -SN SCT007 OVC015
     FM041900 16008KT 3/4SM -SN BR OVC004
      TEMPO 0420/0422 1/2SM SN
     FM042200 18006KT 1 1/2SM -SN BR OVC005
     FM050000 21007KT 5SM -SN BR OVC008
     FM050300 24008KT P6SM OVC015
     FM051500 19005KT P6SM BKN012=

USA.gov is the U.S. government's official web portal to all federal, state and local government web resources and services.